Latest Coastal Weather Observations for St Lawrence

IDQ60701

Issued at 6:05 pm EST Sunday 20 April 2014 (issued every 10 minutes, with the page automatically refreshed every 10 minutes)

About coastal observations | Map of coastal stations | Coastal observations for QLD | Marine services | Other Formats
Station Details ID: 033210 Name: ST LAWRENCE Lat: -22.35 Lon: 149.52 Height: 9.19 m
Data from the previous 72 hours. | See also: Recent months at St Lawrence
Date/Time
EST
Temp

°C
Wind Pressure Rain
since 9am
mm
Weather Cloud Vis
km
Sea
Height
m
Swell
Dir
 
Speed
knots
Gust
knots
hPa Trend Height
m
Period
s
Dir
20/06:00pm 24.6 NNE 6 8 1016.1 - 0.0 - - - - - - -
20/05:30pm 25.4 NNE 8 11 1015.9 - 0.0 - - - - - - -
20/05:00pm 26.0 NNE 8 12 1015.6 - 0.0 - - - - - - -
20/04:30pm 26.8 NNE 9 11 1015.3 - 0.0 - - - - - - -
20/04:00pm 27.0 NNE 8 12 1015.2 - 0.0 - - - - - - -
20/03:30pm 27.2 NE 8 11 1015.0 - 0.0 - - - - - - -
20/03:00pm 27.6 NE 8 12 1014.9 - 0.0 - - - - - - -
20/02:30pm 27.6 NNE 8 11 1014.9 - 0.0 - - - - - - -
20/02:00pm 27.5 NNE 9 12 1015.0 - 0.0 - - - - - - -
20/01:30pm 27.5 NE 9 12 1015.1 - 0.0 - - - - - - -
20/01:00pm 28.1 NNE 10 13 1015.5 - 0.0 - - - - - - -
20/12:30pm 27.8 NE 8 11 1015.9 - 0.0 - - - - - - -
20/12:00pm 26.6 NNE 8 12 1016.4 - 0.0 - - - - - - -
20/11:30am 26.7 ENE 5 9 1016.9 - 0.0 - - - - - - -
20/11:00am 27.3 NE 4 9 1017.3 - 0.0 - - - - - - -
20/10:30am 25.8 S 3 6 1017.5 - 0.0 - - - - - - -
20/10:00am 25.8 S 3 6 1017.5 - 0.0 - - - - - - -
20/09:30am 24.8 SSE 4 5 1017.6 - 0.0 - - - - - - -
20/09:00am 23.7 S 5 6 1017.3 - 0.0 - - - - - - -
20/08:30am 22.2 S 4 6 1017.2 - 0.0 - - - - - - -
20/08:00am 20.6 SSW 4 5 1016.9 - 0.0 - - - - - - -
20/07:30am 18.7 CALM 0 0 1016.7 - 0.0 - - - - - - -
20/07:00am 17.5 CALM 0 0 1016.4 - 0.0 - - - - - - -
20/06:30am 16.9 CALM 0 3 1016.0 - 0.0 - - - - - - -
20/06:00am 16.5 WSW 0 0 1015.7 - 0.0 - - - - - - -
20/05:30am 17.0 WSW 3 3 1015.5 - 0.0 - - - - - - -
20/05:00am 16.9 SW 2 3 1015.2 - 0.0 - - - - - - -
20/04:30am 17.3 SW 3 4 1014.9 - 0.0 - - - - - - -
20/04:00am 17.2 CALM 0 0 1014.6 - 0.0 - - - - - - -
20/03:30am 17.2 CALM 0 0 1014.6 - 0.0 - - - - - - -
20/03:00am 17.9 CALM 0 0 1014.6 - 0.0 - - - - - - -
20/02:30am 18.1 SW 3 4 1014.8 - 0.0 - - - - - - -
20/02:00am 18.2 SW 3 4 1014.8 - 0.0 - - - - - - -
20/01:30am 18.3 SW 3 4 1015.0 - 0.0 - - - - - - -
20/01:00am 18.4 WSW 3 4 1015.1 - 0.0 - - - - - - -
20/12:30am 18.6 SW 3 4 1015.4 - 0.0 - - - - - - -
20/12:00am 18.9 WSW 3 4 1015.4 - 0.0 - - - - - - -
 
Date/Time
EST
Temp

°C
Wind Pressure Rain
since 9am
mm
Weather Cloud Vis
km
Sea
Height
m
Swell
Dir
 
Speed
knots
Gust
knots
hPa Trend Height
m
Period
s
Dir
19/11:30pm 19.4 WSW 1 4 1015.7 - 0.0 - - - - - - -
19/11:00pm 19.6 CALM 0 0 1015.7 - 0.0 - - - - - - -
19/10:30pm 19.6 CALM 0 0 1015.8 - 0.0 - - - - - - -
19/10:00pm 20.4 CALM 0 0 1015.9 - 0.0 - - - - - - -
19/09:30pm 20.6 CALM 0 0 1015.8 - 0.0 - - - - - - -
19/09:00pm 21.5 NE 2 3 1015.7 - 0.0 - - - - - - -
19/08:30pm 22.1 NE 3 5 1015.7 - 0.0 - - - - - - -
19/08:00pm 22.6 NNE 3 4 1015.4 - 0.0 - - - - - - -
19/07:30pm 22.6 NE 3 5 1015.2 - 0.0 - - - - - - -
19/07:00pm 23.4 NNE 3 4 1014.7 - 0.0 - - - - - - -
19/06:30pm 24.4 N 5 7 1014.4 - 0.0 - - - - - - -
19/06:00pm 24.9 NNE 7 10 1014.1 - 0.0 - - - - - - -
19/05:30pm 25.9 NNE 8 11 1014.0 - 0.0 - - - - - - -
19/05:00pm 26.7 NNE 9 12 1013.7 - 0.0 - - - - - - -
19/04:30pm 27.1 NNE 9 12 1013.6 - 0.0 - - - - - - -
19/04:00pm 27.9 NE 8 11 1013.5 - 0.0 - - - - - - -
19/03:30pm 28.1 NE 8 11 1013.4 - 0.0 - - - - - - -
19/03:00pm 28.4 NE 7 10 1013.4 - 0.0 - - - - - - -
19/02:30pm 28.6 NNE 7 9 1013.7 - 0.0 - - - - - - -
19/02:00pm 28.6 NNE 7 10 1014.0 - 0.0 - - - - - - -
19/01:30pm 28.7 NNE 6 10 1014.3 - 0.0 - - - - - - -
19/01:00pm 28.5 NNE 6 9 1014.8 - 0.0 - - - - - - -
19/12:30pm 28.1 N 4 9 1015.2 - 0.0 - - - - - - -
19/12:00pm 28.1 NE 5 7 1015.6 - 0.0 - - - - - - -
19/11:30am 27.6 NE 4 9 1016.2 - 0.0 - - - - - - -
19/11:00am 26.9 E 4 7 1016.7 - 0.0 - - - - - - -
19/10:30am 27.0 WSW 2 4 1017.0 - 0.0 - - - - - - -
19/10:00am 25.7 W 3 4 1017.3 - 0.0 - - - - - - -
19/09:30am 25.2 SSE 2 5 1017.4 - 0.0 - - - - - - -
19/09:00am 23.9 S 4 6 1017.4 - 0.0 - - - - - - -
19/08:30am 23.1 S 4 5 1017.5 - 0.0 - - - - - - -
19/08:00am 21.9 S 2 4 1017.4 - 0.0 - - - - - - -
19/07:30am 20.6 S 3 4 1017.2 - 0.0 - - - - - - -
19/07:00am 19.3 SW 2 3 1017.2 - 0.0 - - - - - - -
19/06:30am 18.4 SSW 3 5 1017.0 - 0.0 - - - - - - -
19/06:00am 18.4 SSW 4 5 1016.5 - 0.0 - - - - - - -
19/05:30am 18.3 WSW 4 5 1016.3 - 0.0 - - - - - - -
19/05:00am 18.7 WSW 3 4 1015.8 - 0.0 - - - - - - -
19/04:30am 18.3 SSW 2 4 1015.6 - 0.0 - - - - - - -
19/04:00am 18.3 SSW 3 4 1015.6 - 0.0 - - - - - - -
19/03:30am 18.4 SSW 4 5 1015.6 - 0.0 - - - - - - -
19/03:00am 19.0 S 3 4 1015.5 - 0.0 - - - - - - -
19/02:30am 19.2 SW 2 3 1015.7 - 0.0 - - - - - - -
19/02:00am 19.4 WSW 3 4 1015.9 - 0.0 - - - - - - -
19/01:30am 19.5 CALM 0 0 1016.1 - 0.0 - - - - - - -
19/01:00am 19.7 CALM 0 0 1016.3 - 0.0 - - - - - - -
19/12:30am 19.9 WSW 3 4 1016.5 - 0.0 - - - - - - -
19/12:00am 20.1 WSW 3 4 1016.4 - 0.0 - - - - - - -
 
Date/Time
EST
Temp

°C
Wind Pressure Rain
since 9am
mm
Weather Cloud Vis
km
Sea
Height
m
Swell
Dir
 
Speed
knots
Gust
knots
hPa Trend Height
m
Period
s
Dir
18/11:30pm 20.3 WSW 3 4 1016.5 - 0.0 - - - - - - -
18/11:00pm 20.3 CALM 0 0 1016.6 - 0.0 - - - - - - -
18/10:30pm 20.7 CALM 0 0 1016.4 - 0.0 - - - - - - -
18/10:00pm 20.9 CALM 0 0 1016.5 - 0.0 - - - - - - -
18/09:30pm 21.3 CALM 0 0 1016.5 - 0.0 - - - - - - -
18/09:00pm 21.6 CALM 0 0 1016.3 - 0.0 - - - - - - -
18/08:30pm 22.2 ENE 1 3 1016.2 - 0.0 - - - - - - -
18/08:00pm 22.9 NNW 1 4 1015.8 - 0.0 - - - - - - -
18/07:30pm 23.4 NNW 3 4 1015.6 - 0.0 - - - - - - -
18/07:00pm 24.0 NNE 4 5 1015.3 - 0.0 - - - - - - -
18/06:30pm 24.4 NE 5 7 1015.0 - 0.0 - - - - - - -
18/06:00pm 24.8 NE 6 8 1014.6 - 0.0 - - - - - - -
18/05:30pm 25.4 NNE 6 8 1014.3 - 0.0 - - - - - - -
18/05:00pm 26.0 NNE 6 7 1014.0 - 0.0 - - - - - - -
18/04:30pm 26.2 N 8 10 1013.7 - 0.0 - - - - - - -
18/04:00pm 27.1 N 8 12 1013.4 - 0.0 - - - - - - -
18/03:30pm 27.4 N 9 13 1013.2 - 0.0 - - - - - - -
18/03:00pm 27.9 N 8 12 1013.2 - 0.0 - - - - - - -
18/02:30pm 27.4 NE 8 11 1013.4 - 0.0 - - - - - - -
18/02:00pm 28.1 NNE 8 11 1013.6 - 0.0 - - - - - - -
18/01:30pm 27.8 NE 8 11 1013.9 - 0.0 - - - - - - -
18/01:00pm 26.7 NE 7 10 1014.3 - 0.0 - - - - - - -
18/12:30pm 27.5 NNE 7 10 1014.6 - 0.0 - - - - - - -
18/12:00pm 27.9 NNE 6 9 1015.0 - 0.0 - - - - - - -
18/11:30am 27.4 N 6 8 1015.6 - 0.0 - - - - - - -
18/11:00am 26.8 N 5 7 1016.2 - 0.0 - - - - - - -
18/10:30am 27.1 NE 4 6 1016.6 - 0.0 - - - - - - -
18/10:00am 24.5 SE 3 4 1016.9 - 0.0 - - - - - - -
18/09:30am 25.3 SSW 4 6 1017.1 - 0.0 - - - - - - -
18/09:00am 24.4 SSW 4 6 1017.0 - 0.0 - - - - - - -
18/08:30am 23.6 S 6 8 1016.9 - 0.0 - - - - - - -
18/08:00am 22.8 SSE 6 9 1016.9 - 0.0 - - - - - - -
18/07:30am 21.7 S 6 9 1016.7 - 0.0 - - - - - - -
18/07:00am 20.8 S 5 7 1016.6 - 0.0 - - - - - - -
18/06:30am 20.4 S 5 8 1016.3 - 0.0 - - - - - - -
18/06:00am 19.9 CALM 0 0 1015.9 - 0.0 - - - - - - -
18/05:30am 20.1 S 1 4 1015.8 - 0.0 - - - - - - -
18/05:00am 20.3 SSW 1 3 1015.6 - 0.0 - - - - - - -
18/04:30am 21.2 SSE 3 5 1015.5 - 0.0 - - - - - - -
18/04:00am 21.0 S 3 4 1015.4 - 0.0 - - - - - - -
18/03:30am 21.0 CALM 0 0 1015.4 - 0.0 - - - - - - -
18/03:00am 21.1 CALM 0 0 1015.5 - 0.0 - - - - - - -
18/02:30am 20.9 WSW 2 3 1015.7 - 0.0 - - - - - - -
18/02:00am 20.8 WSW 3 4 1015.7 - 0.0 - - - - - - -
18/01:30am 20.4 CALM 0 0 1016.0 - 0.0 - - - - - - -
18/01:00am 20.9 S 1 3 1016.2 - 0.0 - - - - - - -
18/12:30am 21.1 CALM 0 0 1016.4 - 0.0 - - - - - - -
18/12:00am 21.1 SW 1 3 1016.4 - 0.0 - - - - - - -
 
Date/Time
EST
Temp

°C
Wind Pressure Rain
since 9am
mm
Weather Cloud Vis
km
Sea
Height
m
Swell
Dir
 
Speed
knots
Gust
knots
hPa Trend Height
m
Period
s
Dir
17/11:30pm 21.0 CALM 0 4 1016.8 - 0.0 - - - - - - -
17/11:00pm 21.6 CALM 0 0 1016.9 - 0.0 - - - - - - -
17/10:30pm 21.8 CALM 0 0 1017.0 - 0.0 - - - - - - -
17/10:00pm 22.0 CALM 0 0 1016.9 - 0.0 - - - - - - -
17/09:30pm 22.1 CALM 0 0 1016.9 - 0.0 - - - - - - -
17/09:00pm 22.5 CALM 0 0 1016.7 - 0.0 - - - - - - -
17/08:30pm 23.0 CALM 0 0 1016.5 - 0.0 - - - - - - -
17/08:00pm 24.2 N 4 5 1016.3 - 0.0 - - - - - - -
17/07:30pm 24.5 NNE 6 7 1015.9 - 0.0 - - - - - - -
17/07:00pm 24.5 NNE 5 7 1015.5 - 0.0 - - - - - - -
17/06:30pm 24.6 NNE 4 6 1015.1 - 0.0 - - - - - - -

Other Formats:

Comma delimited format used in spreadsheet applications
http://www.bom.gov.au/fwo/IDQ60701/IDQ60701.95369.axf

JavaScript Object Notation format (JSON) in row-major order
http://www.bom.gov.au/fwo/IDQ60701/IDQ60701.95369.json